MROC/SJO METAR and TAF weather

Enter ICAO airport designator
Station Type Date Time Source
MROC METAR 2018/12/13 20:00 UTC NOAA

MROC 132000Z 23007KT 180V300 9999 FEW040 28/18 A2998 NOSIG


Station Type Date Time Source
MROC Decoded METAR 2018/12/13 20:00 UTC NOAA

Juan Santamaria, Costa Rica (MROC) 10-00N 084-13W 939M
Dec 13, 2018 - 03:00 PM EST / 2018.12.13 2000 UTC
Wind: from the SW (230 degrees) at 8 MPH (7 KT) (direction variable):0
Visibility: greater than 7 mile(s):0
Sky conditions: mostly clear
Temperature: 82 F (28 C)
Dew Point: 64 F (18 C)
Relative Humidity: 54%
Pressure (altimeter): 29.98 in. Hg (1015 hPa)
ob: MROC 132000Z 23007KT 180V300 9999 FEW040 28/18 A2998 NOSIG
cycle: 20

Station Type Date Time Source
MROC TAF 2018/12/13 18:33 UTC NOAA

TAF MROC 131700Z 1318/1418 08008KT 9999 FEW040 TX30/1319Z TN19/1410Z
TEMPO 1318/1320 15007KT
BECMG 1319/1321 23008KT
BECMG 1402/1404 07007KT


Example: see airport list